Time;durP1;ratioP1;P1;durP2;ratioP2;P2;SDS_P1;SDS_P2;PMS_P1;PMS_P2;Temp;Humidity;BMP_temperature;BMP_pressure;BME280_temperature;BME280_humidity;BME280_pressure;Samples;Min_cycle;Max_cycle;Signal;HPM_P1;HPM_P2
2021/11/08 00:02:01;;;;;;;243.60;83.80;;;256.90;2252.80;;;;;;5086573;28;20011;-78
2021/11/08 00:04:27;;;;;;;289.48;93.45;;;256.90;2252.80;;;;;;5114555;28;20024;-78
2021/11/08 00:06:53;;;;;;;258.33;91.90;;;256.80;2252.80;;;;;;5115766;28;20384;-78
2021/11/08 00:09:20;;;;;;;228.45;83.35;;;256.90;2252.80;;;;;;5096848;28;20085;-78
2021/11/08 00:11:46;;;;;;;251.60;83.45;;;256.90;2252.80;;;;;;5096998;28;20031;-79
2021/11/08 00:14:17;;;;;;;239.27;85.32;;;256.90;2252.80;;;;;;5115427;28;20029;-79
2021/11/08 00:22:02;;;;;;;227.75;82.32;;;256.90;2252.80;;;;;;5052281;28;20036;-78
2021/11/08 00:24:30;;;;;;;225.63;82.35;;;256.80;2252.80;;;;;;5052675;28;20029;-78
2021/11/08 00:26:56;;;;;;;214.20;80.20;;;256.80;2252.80;;;;;;5051944;28;20533;-78
2021/11/08 00:33:32;;;;;;;258.70;85.20;;;256.80;2252.80;;;;;;5050721;28;20064;-78
2021/11/08 00:36:00;;;;;;;270.20;92.45;;;256.80;2252.80;;;;;;5052234;28;20115;-78
2021/11/08 00:38:27;;;;;;;235.77;82.55;;;256.80;2252.80;;;;;;5035193;28;20112;-78
2021/11/08 00:40:54;;;;;;;247.88;82.13;;;256.80;2252.80;;;;;;5052458;28;20151;-77
2021/11/08 00:43:20;;;;;;;231.73;81.97;;;256.70;2252.80;;;;;;5051204;28;20885;-78
2021/11/08 00:45:46;;;;;;;239.13;81.43;;;256.70;2252.80;;;;;;5052169;28;20028;-78
2021/11/08 00:48:18;;;;;;;259.70;84.82;;;256.70;2252.80;;;;;;5050723;28;20037;-78
2021/11/08 00:50:44;;;;;;;255.88;80.40;;;256.60;2252.80;;;;;;5051915;28;20386;-78
2021/11/08 00:53:11;;;;;;;215.77;78.70;;;256.70;2252.80;;;;;;5051469;28;20025;-78
2021/11/08 00:55:39;;;;;;;233.57;79.72;;;256.60;2252.80;;;;;;5058727;28;20056;-78
2021/11/08 00:58:05;;;;;;;235.27;80.97;;;256.60;2252.80;;;;;;5096369;28;20028;-78
2021/11/08 01:00:32;;;;;;;234.05;86.15;;;256.70;2252.80;;;;;;5095696;28;20106;-78
2021/11/08 01:03:02;;;;;;;236.02;88.07;;;256.60;2252.80;;;;;;5096414;28;20027;-78
2021/11/08 01:05:27;;;;;;;224.50;85.03;;;256.60;2252.80;;;;;;5095837;28;20430;-77
2021/11/08 01:07:53;;;;;;;222.52;88.20;;;256.60;2252.80;;;;;;5114559;28;20031;-78
2021/11/08 01:10:20;;;;;;;221.88;78.82;;;256.60;2252.80;;;;;;5094584;28;20029;-78
2021/11/08 01:12:47;;;;;;;228.95;77.55;;;256.60;2252.80;;;;;;5092915;28;20032;-77
2021/11/08 01:15:14;;;;;;;236.85;78.57;;;256.60;2252.80;;;;;;5073158;28;20075;-77
2021/11/08 01:17:41;;;;;;;230.38;80.20;;;256.60;2252.80;;;;;;5093340;28;20392;-77
2021/11/08 01:20:09;;;;;;;245.77;83.03;;;256.50;2252.80;;;;;;5092586;28;20032;-78
2021/11/08 01:22:35;;;;;;;255.68;84.40;;;256.50;2252.80;;;;;;5091903;28;20388;-77
2021/11/08 01:25:03;;;;;;;284.67;88.05;;;256.50;2252.80;;;;;;5092402;28;20020;-78
2021/11/08 01:27:40;;;;;;;298.38;90.90;;;256.50;2252.80;;;;;;5093244;28;20047;-78
2021/11/08 01:30:13;;;;;;;260.17;81.93;;;256.50;2252.80;;;;;;5092008;28;20028;-78
2021/11/08 01:32:40;;;;;;;248.65;82.00;;;256.50;2252.80;;;;;;5093639;28;20077;-78
2021/11/08 01:35:08;;;;;;;239.40;81.75;;;256.40;2252.80;;;;;;5091949;28;20028;-77
2021/11/08 01:37:33;;;;;;;224.30;81.75;;;256.50;2252.80;;;;;;5091806;28;20074;-78
2021/11/08 01:40:00;;;;;;;219.27;83.80;;;256.50;2252.80;;;;;;5091773;28;20059;-78
2021/11/08 01:42:26;;;;;;;219.07;78.05;;;256.40;2252.80;;;;;;5091954;28;20434;-78
2021/11/08 01:44:51;;;;;;;212.95;81.13;;;256.40;2252.80;;;;;;5091682;28;20107;-79
2021/11/08 01:47:17;;;;;;;213.80;78.75;;;256.40;2252.80;;;;;;5091969;28;20024;-78
2021/11/08 01:49:43;;;;;;;213.80;80.60;;;256.40;2252.80;;;;;;5091863;28;20028;-78
2021/11/08 01:52:12;;;;;;;214.35;81.40;;;256.40;2252.80;;;;;;5091806;28;20392;-78
2021/11/08 01:54:38;;;;;;;228.75;83.07;;;256.30;2252.80;;;;;;5091938;28;20028;-79
2021/11/08 01:57:05;;;;;;;222.73;79.78;;;256.30;2252.80;;;;;;5091413;28;20034;-79
2021/11/08 01:59:32;;;;;;;245.48;83.88;;;256.30;2252.80;;;;;;5091549;28;20020;-78
2021/11/08 02:01:59;;;;;;;247.13;88.20;;;256.30;2252.80;;;;;;5092719;28;20028;-79
2021/11/08 02:04:26;;;;;;;237.85;80.05;;;256.30;2252.80;;;;;;5091884;28;20055;-80
2021/11/08 02:06:52;;;;;;;252.98;83.90;;;256.30;2252.80;;;;;;5083042;28;20457;-79
2021/11/08 02:09:19;;;;;;;261.00;86.65;;;256.30;2252.80;;;;;;5072344;28;20404;-79
2021/11/08 02:11:46;;;;;;;305.60;96.78;;;256.30;2252.80;;;;;;5071188;28;20029;-79
2021/11/08 02:14:12;;;;;;;301.45;96.30;;;256.70;2252.80;;;;;;5071995;28;20036;-79
2021/11/08 02:16:38;;;;;;;312.60;93.40;;;256.20;2252.80;;;;;;5084046;28;20582;-78
2021/11/08 02:19:05;;;;;;;288.27;88.95;;;256.20;2252.80;;;;;;5111042;28;20091;-77
2021/11/08 02:21:32;;;;;;;269.00;88.05;;;256.20;2252.80;;;;;;5093671;28;20016;-77
2021/11/08 02:23:59;;;;;;;298.20;86.32;;;256.20;2252.80;;;;;;5106552;28;20110;-78
2021/11/08 02:26:25;;;;;;;294.20;92.65;;;256.20;2252.80;;;;;;5081914;28;20012;-78
2021/11/08 02:28:53;;;;;;;277.48;86.82;;;256.30;2252.80;;;;;;5112060;28;20027;-78
2021/11/08 02:31:22;;;;;;;279.85;87.20;;;256.30;2252.80;;;;;;5094214;28;20471;-78
2021/11/08 02:33:51;;;;;;;254.73;83.45;;;256.20;2252.80;;;;;;5112057;28;20028;-78
2021/11/08 02:36:18;;;;;;;240.38;78.45;;;256.20;2252.80;;;;;;5111448;28;20027;-78
2021/11/08 02:38:48;;;;;;;251.98;84.30;;;256.20;2252.80;;;;;;5112349;28;20051;-78
2021/11/08 02:41:16;;;;;;;255.88;81.68;;;256.20;2252.80;;;;;;5111725;28;20019;-78
2021/11/08 02:43:43;;;;;;;321.23;94.57;;;256.20;2252.80;;;;;;5094318;28;20020;-78
2021/11/08 02:46:17;;;;;;;265.58;87.05;;;256.20;2252.80;;;;;;5093084;28;20027;-78
2021/11/08 02:48:45;;;;;;;343.33;96.90;;;256.20;2252.80;;;;;;5112242;28;20391;-78
2021/11/08 02:51:19;;;;;;;320.73;91.63;;;256.20;2252.80;;;;;;5093510;28;20110;-79
2021/11/08 02:53:48;;;;;;;283.80;87.80;;;256.20;2252.80;;;;;;5111648;28;20016;-78
2021/11/08 02:56:15;;;;;;;274.98;92.50;;;256.20;2252.80;;;;;;5112105;28;20460;-78
2021/11/08 02:58:45;;;;;;;339.88;98.03;;;256.10;2252.80;;;;;;5111556;28;20047;-78
2021/11/08 03:01:25;;;;;;;288.92;93.72;;;256.20;2252.80;;;;;;5093713;28;20365;-78
2021/11/08 03:03:55;;;;;;;300.95;93.22;;;256.20;2252.80;;;;;;5111940;28;20016;-78
2021/11/08 03:06:31;;;;;;;329.83;106.60;;;256.20;2252.80;;;;;;5093246;28;20468;-78
2021/11/08 03:09:06;;;;;;;298.98;94.95;;;256.20;2252.80;;;;;;5093839;28;20028;-79
2021/11/08 03:11:32;;;;;;;297.98;96.25;;;256.20;2252.80;;;;;;5106733;28;20492;-79
2021/11/08 03:14:02;;;;;;;304.63;101.53;;;256.30;2252.80;;;;;;5097760;28;20099;-78
2021/11/08 03:16:45;;;;;;;279.10;92.82;;;256.30;2252.80;;;;;;5076373;28;20037;-79
2021/11/08 03:19:23;;;;;;;247.77;87.30;;;256.40;2252.80;;;;;;5085787;28;20032;-80
2021/11/08 03:21:50;;;;;;;244.13;90.70;;;256.40;2252.80;;;;;;5088974;28;20023;-80
2021/11/08 03:24:22;;;;;;;244.48;85.63;;;256.40;2252.80;;;;;;5090094;28;20499;-80
2021/11/08 03:26:52;;;;;;;291.25;92.53;;;256.40;2252.80;;;;;;5081108;28;20027;-80
2021/11/08 03:29:19;;;;;;;229.10;91.47;;;256.40;2252.80;;;;;;5093900;28;20038;-79
2021/11/08 03:31:49;;;;;;;239.18;84.95;;;256.40;2252.80;;;;;;5084997;28;20023;-80
2021/11/08 03:34:15;;;;;;;214.00;80.85;;;256.40;2252.80;;;;;;5082940;28;20035;-79
2021/11/08 03:36:41;;;;;;;218.93;85.13;;;256.40;2252.80;;;;;;5100350;28;20032;-77
2021/11/08 03:39:09;;;;;;;237.02;86.05;;;256.50;2252.80;;;;;;5090727;28;20020;-77
2021/11/08 03:41:35;;;;;;;241.65;90.75;;;256.50;2252.80;;;;;;5088888;28;20016;-78
2021/11/08 03:44:02;;;;;;;216.48;84.13;;;256.50;2252.80;;;;;;5097144;28;20388;-77
2021/11/08 03:46:28;;;;;;;200.45;80.80;;;256.50;2252.80;;;;;;5097665;28;20024;-77
2021/11/08 03:48:54;;;;;;;208.35;80.93;;;256.50;2252.80;;;;;;5107301;28;20035;-77
2021/11/08 03:51:19;;;;;;;220.20;83.57;;;256.50;2252.80;;;;;;5093843;28;20020;-77
2021/11/08 03:53:45;;;;;;;198.15;77.88;;;256.50;2252.80;;;;;;5093573;28;20034;-78
2021/11/08 03:56:11;;;;;;;210.90;77.40;;;256.50;2252.80;;;;;;5097613;28;20066;-78
2021/11/08 03:58:37;;;;;;;197.38;78.28;;;256.50;2252.80;;;;;;5092310;28;20036;-77
2021/11/08 04:01:05;;;;;;;186.45;73.22;;;256.50;2252.80;;;;;;5085164;28;20035;-78
2021/11/08 04:03:31;;;;;;;202.43;77.30;;;256.50;2252.80;;;;;;5076807;28;20028;-78
2021/11/08 04:05:57;;;;;;;192.23;72.00;;;256.50;2252.80;;;;;;5095525;28;20028;-78
2021/11/08 04:08:23;;;;;;;180.77;71.95;;;256.50;2252.80;;;;;;5076703;28;20039;-78
2021/11/08 04:10:53;;;;;;;179.05;70.30;;;256.50;2252.80;;;;;;5090783;28;20023;-78
2021/11/08 04:13:28;;;;;;;194.25;70.50;;;256.50;2252.80;;;;;;5097388;28;20027;-78
2021/11/08 04:15:55;;;;;;;173.48;68.63;;;256.50;2252.80;;;;;;5091226;28;20059;-78
2021/11/08 04:18:25;;;;;;;167.80;66.93;;;256.50;2252.80;;;;;;5097143;28;20067;-79
2021/11/08 04:20:54;;;;;;;156.82;65.38;;;256.50;2252.80;;;;;;5097029;28;20369;-78
2021/11/08 04:23:23;;;;;;;150.13;65.93;;;256.40;2252.80;;;;;;5096868;28;20019;-78
2021/11/08 04:25:51;;;;;;;143.70;63.25;;;256.40;2252.80;;;;;;5097088;28;20478;-78
2021/11/08 04:28:17;;;;;;;149.38;62.80;;;256.40;2252.80;;;;;;5096686;28;20031;-77
2021/11/08 04:30:44;;;;;;;154.82;64.95;;;256.40;2252.80;;;;;;5091787;28;20028;-78
2021/11/08 04:33:35;;;;;;;148.70;63.17;;;256.40;2252.80;;;;;;5094686;28;20021;-78
2021/11/08 04:36:21;;;;;;;145.02;59.42;;;256.40;2252.80;;;;;;5096657;28;20024;-78
2021/11/08 04:41:40;;;;;;;136.50;59.03;;;256.40;2252.80;;;;;;5114484;28;20027;-79
2021/11/08 04:49:32;;;;;;;134.95;55.90;;;256.30;2252.80;;;;;;5094021;28;20542;-77
2021/11/08 04:52:15;;;;;;;148.02;55.25;;;256.30;2252.80;;;;;;5076155;28;20020;-78
2021/11/08 05:30:17;;;;;;;147.02;63.28;;;256.30;2252.80;;;;;;4952123;29;20070;-78
2021/11/08 05:32:45;;;;;;;133.23;60.60;;;256.30;2252.80;;;;;;4974037;28;20053;-78
2021/11/08 05:35:14;;;;;;;141.60;63.05;;;256.30;2252.80;;;;;;5031012;28;20034;-78
2021/11/08 05:37:44;;;;;;;151.55;67.75;;;256.30;2252.80;;;;;;5030276;28;20564;-78
2021/11/08 05:40:17;;;;;;;137.85;65.45;;;256.30;2252.80;;;;;;5013748;28;20033;-78
2021/11/08 05:42:43;;;;;;;134.23;64.32;;;256.40;2252.80;;;;;;5075622;28;20028;-78
2021/11/08 05:45:12;;;;;;;146.65;67.97;;;256.40;2252.80;;;;;;5099526;28;20046;-78
2021/11/08 05:47:39;;;;;;;142.85;65.78;;;256.40;2252.80;;;;;;5101960;28;20036;-78
2021/11/08 05:50:07;;;;;;;126.53;65.97;;;256.40;2252.80;;;;;;5103856;28;20039;-77
2021/11/08 05:52:33;;;;;;;144.40;68.75;;;256.30;2252.80;;;;;;5083245;28;20073;-78
2021/11/08 05:54:59;;;;;;;142.20;66.47;;;256.30;2252.80;;;;;;5073684;28;20031;-78
2021/11/08 06:51:35;;;;;;;124.30;67.63;;;256.70;2252.80;;;;;;5091841;28;20107;-77
2021/11/08 06:54:03;;;;;;;128.35;68.88;;;256.70;2252.80;;;;;;5087016;28;20025;-77
2021/11/08 06:56:33;;;;;;;125.00;66.00;;;256.70;2252.80;;;;;;5071703;28;20023;-78
2021/11/08 06:59:00;;;;;;;133.30;64.20;;;256.70;2252.80;;;;;;5053909;28;20025;-78
2021/11/08 07:01:28;;;;;;;125.85;69.95;;;256.70;2252.80;;;;;;5067059;28;20450;-76
2021/11/08 07:03:54;;;;;;;123.45;69.45;;;256.80;2252.80;;;;;;5103119;28;20074;-76
2021/11/08 07:06:20;;;;;;;133.10;66.45;;;256.80;2252.80;;;;;;5104803;28;20024;-77
2021/11/08 07:08:45;;;;;;;121.93;66.28;;;256.90;2252.80;;;;;;5114054;28;20051;-76
2021/11/08 07:11:11;;;;;;;114.30;64.25;;;256.90;2252.80;;;;;;5116159;28;20033;-77
2021/11/08 07:13:37;;;;;;;129.40;68.38;;;256.90;2252.80;;;;;;5116284;28;20395;-77
2021/11/08 07:16:03;;;;;;;125.70;64.85;;;256.90;2252.80;;;;;;5097882;28;20039;-78
2021/11/08 07:18:29;;;;;;;124.80;69.70;;;281.60;2278.40;;;;;;5084706;28;20035;-76
2021/11/08 07:20:55;;;;;;;128.13;68.38;;;281.60;2278.40;;;;;;5096379;28;20385;-77
2021/11/08 07:23:20;;;;;;;118.07;65.10;;;281.70;2278.40;;;;;;5095537;28;20044;-77
2021/11/08 07:25:46;;;;;;;132.50;68.63;;;281.70;2278.40;;;;;;5092821;28;20116;-77
2021/11/08 07:28:14;;;;;;;130.88;69.20;;;281.80;2278.40;;;;;;5085747;28;20024;-77
2021/11/08 07:30:44;;;;;;;149.40;77.43;;;281.80;2278.40;;;;;;5108892;28;20031;-78
2021/11/08 07:33:10;;;;;;;153.93;79.22;;;281.80;2278.40;;;;;;5089531;28;20433;-79
2021/11/08 07:35:37;;;;;;;134.20;75.32;;;281.80;2278.40;;;;;;5084731;28;20107;-79
2021/11/08 07:38:03;;;;;;;128.60;69.65;;;281.80;2278.40;;;;;;5106883;28;20133;-79
2021/11/08 07:40:29;;;;;;;124.40;68.70;;;281.80;2278.40;;;;;;5085500;28;20020;-78
2021/11/08 07:42:55;;;;;;;132.82;69.07;;;281.80;2278.40;;;;;;5088639;28;20031;-78
2021/11/08 07:45:21;;;;;;;142.73;72.45;;;281.90;2278.40;;;;;;5085651;28;20032;-78
2021/11/08 07:47:47;;;;;;;130.45;72.18;;;281.90;2278.40;;;;;;5103773;28;20492;-78
2021/11/08 07:50:13;;;;;;;122.30;65.60;;;281.90;2278.40;;;;;;5086086;28;20030;-78
2021/11/08 07:52:39;;;;;;;117.57;63.85;;;282.00;2278.40;;;;;;5104416;28;20093;-79
2021/11/08 07:55:05;;;;;;;124.82;67.63;;;281.90;2278.40;;;;;;5087555;28;20105;-78
2021/11/08 07:57:31;;;;;;;116.65;66.55;;;281.90;2278.40;;;;;;5087150;28;20024;-80
2021/11/08 07:59:57;;;;;;;116.82;65.88;;;282.00;2278.40;;;;;;5086419;28;20027;-79
2021/11/08 08:02:23;;;;;;;116.80;64.25;;;282.00;2278.40;;;;;;5086596;28;20068;-79
2021/11/08 08:04:49;;;;;;;125.10;68.68;;;282.00;2278.40;;;;;;5091191;28;20024;-80
2021/11/08 08:07:15;;;;;;;122.70;71.07;;;282.00;2278.40;;;;;;5094286;28;20024;-79
2021/11/08 08:09:41;;;;;;;119.43;63.20;;;282.00;2278.40;;;;;;5097228;28;20510;-79
2021/11/08 08:12:08;;;;;;;114.15;63.20;;;282.00;2278.40;;;;;;5097015;28;20046;-79
2021/11/08 08:14:34;;;;;;;109.72;61.70;;;282.00;2278.40;;;;;;5097354;28;20055;-79
2021/11/08 08:17:01;;;;;;;97.03;57.13;;;282.00;2278.40;;;;;;5096694;28;20075;-79
2021/11/08 08:19:27;;;;;;;102.40;58.00;;;281.90;2278.40;;;;;;5114418;28;20476;-80
2021/11/08 08:21:53;;;;;;;100.47;55.10;;;281.90;2278.40;;;;;;5096528;28;20027;-79
2021/11/08 08:24:19;;;;;;;100.75;60.55;;;281.80;2278.40;;;;;;5096095;28;20545;-79
2021/11/08 08:26:45;;;;;;;107.85;60.10;;;281.80;2278.40;;;;;;5109099;28;20024;-79
2021/11/08 08:29:13;;;;;;;106.85;63.22;;;281.80;2278.40;;;;;;5104973;28;20020;-78
2021/11/08 08:31:42;;;;;;;112.10;62.63;;;281.80;2278.40;;;;;;5087359;28;20032;-79
2021/11/08 08:34:10;;;;;;;112.10;61.92;;;281.80;2278.40;;;;;;5089756;28;20502;-78
2021/11/08 08:36:37;;;;;;;109.90;61.53;;;281.80;2278.40;;;;;;5085753;28;20464;-78
2021/11/08 08:39:05;;;;;;;101.30;55.78;;;281.80;2278.40;;;;;;5088700;28;20012;-78
2021/11/08 08:41:32;;;;;;;98.35;55.15;;;281.80;2278.40;;;;;;5089077;28;20044;-78
2021/11/08 08:43:58;;;;;;;90.95;52.03;;;281.80;2278.40;;;;;;5107161;28;20027;-78
2021/11/08 08:46:25;;;;;;;86.30;51.33;;;281.80;2278.40;;;;;;5088982;28;20361;-77
2021/11/08 08:48:52;;;;;;;90.57;53.00;;;281.80;2278.40;;;;;;5102100;28;20024;-77
2021/11/08 08:51:19;;;;;;;88.35;50.53;;;281.80;2278.40;;;;;;5085015;28;20031;-76
2021/11/08 08:53:45;;;;;;;84.65;50.85;;;281.70;2278.40;;;;;;5086633;28;20506;-77
2021/11/08 08:56:10;;;;;;;90.18;54.33;;;281.80;2278.40;;;;;;5082007;28;20036;-77
2021/11/08 08:58:38;;;;;;;97.13;55.03;;;281.80;2278.40;;;;;;5086368;28;20059;-77
2021/11/08 09:01:05;;;;;;;96.68;53.53;;;281.80;2278.40;;;;;;5103340;28;20020;-77
2021/11/08 09:03:31;;;;;;;82.55;48.72;;;281.80;2278.40;;;;;;5104718;28;20023;-78
2021/11/08 09:05:56;;;;;;;97.45;55.33;;;281.80;2278.40;;;;;;5085369;28;20627;-77
2021/11/08 09:08:23;;;;;;;94.43;53.72;;;281.80;2278.40;;;;;;5100953;28;20034;-77
2021/11/08 09:10:50;;;;;;;93.80;56.35;;;281.80;2278.40;;;;;;5087198;28;20055;-78
2021/11/08 09:13:16;;;;;;;88.75;51.40;;;281.80;2278.40;;;;;;5097434;28;20111;-77
2021/11/08 09:15:43;;;;;;;88.45;54.88;;;281.80;2278.40;;;;;;5108547;28;20554;-78
2021/11/08 09:18:10;;;;;;;103.30;58.40;;;281.80;2278.40;;;;;;5084974;28;20032;-77
2021/11/08 09:20:38;;;;;;;85.93;49.65;;;281.80;2278.40;;;;;;5079816;28;20441;-78
2021/11/08 09:23:05;;;;;;;82.85;50.85;;;281.90;2278.40;;;;;;5084756;28;20019;-79
2021/11/08 09:25:32;;;;;;;80.10;49.38;;;281.90;2278.40;;;;;;5100217;28;20069;-77
2021/11/08 09:28:01;;;;;;;79.05;49.47;;;281.90;2278.40;;;;;;5081337;28;20399;-78
2021/11/08 09:30:30;;;;;;;70.60;44.70;;;281.90;2278.40;;;;;;5100231;28;20024;-78
2021/11/08 09:32:57;;;;;;;74.75;47.70;;;282.00;2278.40;;;;;;5085962;28;20476;-78
2021/11/08 09:35:24;;;;;;;81.75;50.13;;;282.00;2278.40;;;;;;5081860;28;20046;-77
2021/11/08 09:37:50;;;;;;;90.07;53.45;;;282.00;2278.40;;;;;;5085958;28;20476;-78
2021/11/08 09:40:20;;;;;;;82.38;51.08;;;282.00;2278.40;;;;;;5109479;28;20067;-78
2021/11/08 09:42:50;;;;;;;85.53;48.70;;;282.10;2278.40;;;;;;5083217;28;20438;-78
2021/11/08 09:45:16;;;;;;;80.47;48.38;;;282.10;2278.40;;;;;;5099076;28;20031;-78
2021/11/08 09:47:44;;;;;;;78.90;46.70;;;282.10;2278.40;;;;;;5082491;28;20040;-78
2021/11/08 09:50:13;;;;;;;77.03;47.22;;;282.10;2278.40;;;;;;5093460;28;20023;-78
2021/11/08 09:52:44;;;;;;;93.97;49.10;;;282.10;2278.40;;;;;;5088483;28;20412;-77
2021/11/08 09:55:14;;;;;;;99.93;57.47;;;282.10;2278.40;;;;;;5075525;28;20035;-77
2021/11/08 09:57:40;;;;;;;114.32;60.70;;;282.10;2278.40;;;;;;5082271;28;20053;-78
2021/11/08 10:00:18;;;;;;;103.43;62.63;;;282.20;2278.40;;;;;;5111890;28;20035;-77
2021/11/08 10:03:12;;;;;;;91.95;56.53;;;282.20;2278.40;;;;;;5093202;28;20377;-77
2021/11/08 10:05:42;;;;;;;89.78;54.25;;;282.10;2278.40;;;;;;5086757;28;20040;-78
2021/11/08 10:08:09;;;;;;;68.43;45.65;;;282.10;2278.40;;;;;;5088883;28;20036;-77
2021/11/08 10:10:35;;;;;;;78.75;48.05;;;282.10;2278.40;;;;;;5102438;28;20030;-78
2021/11/08 10:13:10;;;;;;;75.97;44.90;;;282.10;2278.40;;;;;;5101103;28;20093;-77
2021/11/08 10:15:38;;;;;;;59.03;39.28;;;282.10;2278.40;;;;;;5084656;28;20048;-77
2021/11/08 10:18:05;;;;;;;62.40;41.85;;;282.10;2278.40;;;;;;5111414;28;20032;-77
2021/11/08 10:20:41;;;;;;;65.50;39.03;;;282.20;2278.40;;;;;;5088192;28;20025;-79
2021/11/08 10:23:08;;;;;;;;;;;282.20;2278.40;;;;;;5085533;28;20027;-77
2021/11/08 10:25:36;;;;;;;56.42;39.75;;;282.20;2278.40;;;;;;5076689;28;19955;-76
2021/11/08 10:28:16;;;;;;;64.20;42.58;;;282.20;2278.40;;;;;;5084821;28;20055;-77
2021/11/08 10:30:45;;;;;;;57.88;39.13;;;282.20;2278.40;;;;;;5081451;28;20046;-75
2021/11/08 10:33:20;;;;;;;63.20;38.92;;;282.10;2278.40;;;;;;5073508;28;20484;-77
2021/11/08 10:35:55;;;;;;;64.68;40.08;;;282.30;2278.40;;;;;;5099651;28;20055;-78
2021/11/08 10:38:24;;;;;;;61.88;40.17;;;282.30;2278.40;;;;;;5103951;28;20039;-77
2021/11/08 10:41:06;;;;;;;59.13;41.08;;;282.30;2278.40;;;;;;5088727;28;20043;-76
2021/11/08 10:43:36;;;;;;;58.20;39.40;;;282.30;2278.40;;;;;;5108114;28;20498;-79
2021/11/08 10:46:08;;;;;;;56.38;37.35;;;282.30;2278.40;;;;;;5091747;28;20039;-77
2021/11/08 10:48:40;;;;;;;56.60;37.30;;;282.30;2278.40;;;;;;5085210;28;20388;-79
2021/11/08 10:51:10;;;;;;;47.67;33.53;;;282.40;2278.40;;;;;;5100238;28;20058;-78
2021/11/08 10:53:43;;;;;;;48.65;33.08;;;282.40;2278.40;;;;;;5087525;28;20039;-78
2021/11/08 10:56:11;;;;;;;44.15;31.98;;;282.30;2278.40;;;;;;5078436;28;20036;-77
2021/11/08 10:58:46;;;;;;;48.05;31.55;;;282.40;2278.40;;;;;;5086389;28;20024;-77
2021/11/08 11:01:22;;;;;;;39.47;25.73;;;282.40;2278.40;;;;;;5095138;28;20016;-78
2021/11/08 11:03:50;;;;;;;40.57;25.57;;;282.40;2278.40;;;;;;5104619;28;20022;-78
2021/11/08 11:06:16;;;;;;;38.58;25.20;;;282.40;2278.40;;;;;;5087094;28;20335;-78
2021/11/08 11:08:50;;;;;;;36.70;23.40;;;282.40;2278.40;;;;;;5103613;28;20533;-78
2021/11/08 11:11:24;;;;;;;38.35;25.23;;;282.50;2278.40;;;;;;5103858;28;20051;-78
2021/11/08 11:13:54;;;;;;;38.80;22.45;;;282.50;2278.40;;;;;;5083171;28;20500;-78
2021/11/08 11:16:35;;;;;;;30.90;21.52;;;282.50;2278.40;;;;;;5104339;28;20048;-79
2021/11/08 11:19:05;;;;;;;29.65;20.23;;;307.20;2304.00;;;;;;5086499;28;20067;-78
2021/11/08 11:21:31;;;;;;;33.33;22.58;;;307.20;2304.00;;;;;;5100080;28;20016;-78
2021/11/08 11:24:02;;;;;;;30.13;20.50;;;282.50;2278.40;;;;;;5088791;28;20123;-78
2021/11/08 11:26:33;;;;;;;26.20;19.35;;;307.20;2304.00;;;;;;5088955;28;20058;-78
2021/11/08 11:29:00;;;;;;;29.92;19.73;;;307.20;2304.00;;;;;;5086412;28;20043;-77
2021/11/08 11:31:29;;;;;;;35.80;25.50;;;307.40;2304.00;;;;;;5083715;28;20031;-78
2021/11/08 11:34:07;;;;;;;36.05;23.52;;;307.20;2304.00;;;;;;5110897;28;20023;-77
2021/11/08 11:36:33;;;;;;;32.15;22.65;;;307.30;2304.00;;;;;;5088697;28;20114;-78
2021/11/08 11:39:03;;;;;;;27.10;19.85;;;307.20;2304.00;;;;;;5107833;28;20027;-78
2021/11/08 11:41:35;;;;;;;37.63;22.27;;;307.20;2304.00;;;;;;5098641;28;20826;-79
2021/11/08 11:44:07;;;;;;;28.15;19.55;;;307.20;2304.00;;;;;;5089709;28;20042;-76
2021/11/08 11:46:42;;;;;;;37.42;22.40;;;307.30;2304.00;;;;;;5102045;28;20030;-76
2021/11/08 11:49:11;;;;;;;30.53;21.17;;;307.40;2304.00;;;;;;5106023;28;20038;-78
2021/11/08 11:51:48;;;;;;;43.33;33.78;;;307.40;2304.00;;;;;;5097606;28;20028;-78
2021/11/08 11:54:16;;;;;;;36.40;27.00;;;307.40;2304.00;;;;;;5107071;28;20028;-78
2021/11/08 11:56:44;;;;;;;25.42;18.27;;;307.40;2304.00;;;;;;5108409;28;20518;-78
2021/11/08 11:59:12;;;;;;;37.78;28.52;;;307.40;2304.00;;;;;;5086322;28;20028;-78
2021/11/08 12:01:40;;;;;;;51.28;34.10;;;307.40;2304.00;;;;;;5092529;28;20028;-78
2021/11/08 12:04:07;;;;;;;47.33;29.10;;;307.40;2304.00;;;;;;5094552;28;20035;-77
2021/11/08 12:06:37;;;;;;;31.13;19.13;;;307.50;2304.00;;;;;;5108746;28;20011;-78
2021/11/08 12:09:11;;;;;;;29.50;18.90;;;307.60;2304.00;;;;;;5083681;28;20032;-78
2021/11/08 12:11:42;;;;;;;31.17;15.20;;;307.60;2304.00;;;;;;5086065;28;20032;-77
2021/11/08 12:14:17;;;;;;;28.40;17.00;;;307.60;2304.00;;;;;;5083635;28;20032;-79
2021/11/08 12:17:02;;;;;;;23.50;16.55;;;307.60;2304.00;;;;;;5080745;28;20123;-80
2021/11/08 12:19:35;;;;;;;32.05;18.13;;;307.60;2304.00;;;;;;5088225;28;20113;-78
2021/11/08 12:22:22;;;;;;;30.33;17.00;;;307.60;2304.00;;;;;;5111417;28;20499;-79
2021/11/08 12:25:09;;;;;;;35.08;17.45;;;307.70;2304.00;;;;;;5095784;28;20040;-78
2021/11/08 12:27:45;;;;;;;22.95;14.43;;;307.70;2304.00;;;;;;5095966;28;20084;-79
2021/11/08 12:30:12;;;;;;;;;;;307.80;2304.00;;;;;;5108200;28;20042;-78
2021/11/08 12:32:59;;;;;;;40.35;16.55;;;307.90;2304.00;;;;;;5086770;28;19915;-78
2021/11/08 12:35:29;;;;;;;29.30;15.40;;;308.10;2304.00;;;;;;5096025;28;20061;-79
2021/11/08 12:37:55;;;;;;;32.75;13.60;;;308.10;2304.00;;;;;;5090043;28;20042;-78
2021/11/08 12:40:27;;;;;;;26.17;14.95;;;308.10;2304.00;;;;;;5086850;28;20111;-78
2021/11/08 12:42:55;;;;;;;22.75;14.68;;;308.10;2304.00;;;;;;5102000;28;20026;-78
2021/11/08 12:45:27;;;;;;;20.63;12.00;;;307.90;2304.00;;;;;;5103505;28;20059;-78
2021/11/08 12:48:10;;;;;;;23.92;14.27;;;307.90;2304.00;;;;;;5101601;28;20512;-78
2021/11/08 12:50:53;;;;;;;23.02;15.63;;;308.00;2304.00;;;;;;5104691;28;20069;-78
2021/11/08 12:53:44;;;;;;;28.35;15.80;;;307.90;2304.00;;;;;;5103036;28;20032;-78
2021/11/08 12:56:27;;;;;;;29.42;14.75;;;307.90;2304.00;;;;;;5085603;28;20067;-78
2021/11/08 12:58:59;;;;;;;27.77;13.95;;;307.80;2304.00;;;;;;5078619;28;20395;-79
2021/11/08 13:01:42;;;;;;;30.63;16.83;;;307.90;2304.00;;;;;;5086299;28;20545;-79
2021/11/08 13:04:09;;;;;;;26.05;15.38;;;307.90;2304.00;;;;;;5105985;28;20023;-78
2021/11/08 13:06:36;;;;;;;32.67;17.77;;;307.90;2304.00;;;;;;5089333;28;20034;-78
2021/11/08 13:09:09;;;;;;;27.73;15.93;;;307.90;2304.00;;;;;;5085334;28;20082;-78
2021/11/08 13:11:41;;;;;;;41.40;15.27;;;308.00;2304.00;;;;;;5090885;28;20373;-79
2021/11/08 13:14:07;;;;;;;21.80;14.45;;;307.90;2304.00;;;;;;5082105;28;20111;-79
2021/11/08 13:16:43;;;;;;;34.92;15.63;;;307.80;2304.00;;;;;;5083727;28;20082;-79
2021/11/08 13:19:14;;;;;;;22.52;12.68;;;307.80;2304.00;;;;;;5085961;28;20046;-80
2021/11/08 13:21:40;;;;;;;23.17;14.73;;;307.80;2304.00;;;;;;5103062;28;20099;-79
2021/11/08 13:24:08;;;;;;;24.73;14.88;;;307.80;2304.00;;;;;;5090423;28;20020;-78
2021/11/08 13:26:39;;;;;;;26.60;14.27;;;307.70;2304.00;;;;;;5085213;28;20102;-80
2021/11/08 13:29:19;;;;;;;22.83;14.85;;;307.70;2304.00;;;;;;5099465;28;20110;-77
2021/11/08 13:31:46;;;;;;;17.17;12.10;;;307.70;2304.00;;;;;;5083621;28;20052;-78
2021/11/08 13:34:14;;;;;;;23.35;15.80;;;307.60;2304.00;;;;;;5086199;28;20028;-79
2021/11/08 13:36:41;;;;;;;28.02;16.38;;;307.60;2304.00;;;;;;5088723;28;20389;-78
2021/11/08 13:39:07;;;;;;;34.45;18.50;;;307.50;2304.00;;;;;;5100279;28;20131;-78
2021/11/08 13:41:33;;;;;;;17.65;11.88;;;307.50;2304.00;;;;;;5103119;28;20519;-79
2021/11/08 13:44:02;;;;;;;15.40;10.30;;;307.40;2304.00;;;;;;5084874;28;20020;-79
2021/11/08 13:46:34;;;;;;;27.23;14.85;;;307.40;2304.00;;;;;;5083275;28;20128;-78
2021/11/08 13:49:06;;;;;;;23.27;13.00;;;307.40;2304.00;;;;;;5099132;28;20028;-79
2021/11/08 13:51:35;;;;;;;26.75;14.50;;;307.40;2304.00;;;;;;5086236;28;20039;-78